Time;durP1;ratioP1;P1;durP2;ratioP2;P2;SDS_P1;SDS_P2;PMS_P1;PMS_P2;Temp;Humidity;BMP_temperature;BMP_pressure;BME280_temperature;BME280_humidity;BME280_pressure;Samples;Min_cycle;Max_cycle;Signal;HPM_P1;HPM_P2
2021/11/05 00:01:46;;;;;;;4.97;3.00;;;;;;;;;;5018347;28;20187;-77
2021/11/05 00:04:12;;;;;;;5.32;2.50;;;;;;;;;;5020564;28;20178;-76
2021/11/05 00:06:39;;;;;;;7.35;3.50;;;;;;;;;;5019408;28;20198;-77
2021/11/05 00:09:05;;;;;;;7.22;2.42;;;;;;;;;;5017345;28;20271;-76
2021/11/05 00:11:31;;;;;;;5.97;2.65;;;;;;;;;;5040690;28;20170;-76
2021/11/05 00:13:57;;;;;;;3.67;2.13;;;;;;;;;;5018428;28;20237;-77
2021/11/05 00:16:23;;;;;;;3.17;2.10;;;;;;;;;;5017600;28;20179;-77
2021/11/05 00:18:49;;;;;;;7.50;3.35;;;;;;;;;;5017158;28;20649;-76
2021/11/05 00:21:15;;;;;;;4.00;2.95;;;;;;;;;;5024235;28;20265;-77
2021/11/05 00:23:41;;;;;;;3.13;2.80;;;;;;;;;;5017574;28;20181;-76
2021/11/05 00:26:07;;;;;;;5.13;2.60;;;;;;;;;;5022054;28;20481;-76
2021/11/05 00:28:33;;;;;;;8.45;3.38;;;;;;;;;;5019170;28;20214;-77
2021/11/05 00:30:59;;;;;;;7.82;2.45;;;;;;;;;;5017601;28;20186;-76
2021/11/05 00:33:25;;;;;;;4.95;3.22;;;;;;;;;;5035919;28;20442;-77
2021/11/05 00:35:51;;;;;;;3.65;2.55;;;;;;;;;;5016785;28;20178;-77
2021/11/05 00:38:17;;;;;;;4.50;2.58;;;;;;;;;;5019504;28;20197;-76
2021/11/05 00:40:43;;;;;;;5.25;3.08;;;;;;;;;;5019222;28;20190;-76
2021/11/05 00:43:09;;;;;;;6.82;3.00;;;;;;;;;;5017911;28;20664;-76
2021/11/05 00:45:35;;;;;;;4.20;2.88;;;;;;;;;;5021230;28;20222;-77
2021/11/05 00:48:01;;;;;;;9.80;2.33;;;;;;;;;;5017855;28;20729;-76
2021/11/05 00:50:27;;;;;;;8.20;2.92;;;;;;;;;;5055370;28;20422;-76
2021/11/05 00:52:53;;;;;;;5.15;3.60;;;;;;;;;;5019417;28;20238;-76
2021/11/05 00:55:19;;;;;;;5.63;2.58;;;;;;;;;;5037799;28;20190;-77
2021/11/05 00:57:45;;;;;;;7.15;2.83;;;;;;;;;;5021046;28;20233;-76
2021/11/05 01:00:13;;;;;;;8.90;3.50;;;;;;;;;;5034322;28;20218;-76
2021/11/05 01:02:39;;;;;;;4.53;2.90;;;;;;;;;;5014426;28;20505;-76
2021/11/05 01:05:05;;;;;;;6.53;3.40;;;;;;;;;;5017939;28;20225;-77
2021/11/05 01:07:31;;;;;;;4.72;2.42;;;;;;;;;;5019013;28;20220;-76
2021/11/05 01:09:57;;;;;;;5.00;2.75;;;;;;;;;;5018287;28;20274;-76
2021/11/05 01:12:23;;;;;;;4.07;3.05;;;;;;;;;;5021008;28;20254;-76
2021/11/05 01:14:50;;;;;;;3.70;2.15;;;;;;;;;;5017302;28;20181;-77
2021/11/05 01:17:16;;;;;;;7.80;2.50;;;;;;;;;;5038465;28;20171;-77
2021/11/05 01:19:42;;;;;;;5.53;3.08;;;;;;;;;;5018968;28;20178;-77
2021/11/05 01:22:09;;;;;;;3.10;2.28;;;;;;;;;;5014884;28;20218;-77
2021/11/05 01:24:35;;;;;;;3.63;2.70;;;;;;;;;;5053354;28;20240;-77
2021/11/05 01:27:01;;;;;;;7.47;2.83;;;;;;;;;;5015736;28;20678;-77
2021/11/05 01:29:27;;;;;;;3.40;2.37;;;;;;;;;;5018893;28;20209;-77
2021/11/05 01:31:53;;;;;;;4.60;2.60;;;;;;;;;;5015226;28;20438;-77
2021/11/05 01:34:19;;;;;;;9.07;2.75;;;;;;;;;;5018258;28;20430;-77
2021/11/05 01:36:45;;;;;;;5.60;2.65;;;;;;;;;;5020456;28;20195;-77
2021/11/05 01:39:11;;;;;;;6.60;3.20;;;;;;;;;;5033333;28;20182;-77
2021/11/05 01:41:38;;;;;;;8.25;3.20;;;;;;;;;;5018354;28;20182;-77
2021/11/05 01:44:04;;;;;;;4.28;2.13;;;;;;;;;;5038632;28;20179;-77
2021/11/05 01:46:30;;;;;;;7.15;2.55;;;;;;;;;;5021826;28;20232;-77
2021/11/05 01:48:57;;;;;;;3.92;2.92;;;;;;;;;;5024880;28;20666;-76
2021/11/05 01:51:22;;;;;;;8.13;3.92;;;;;;;;;;5019039;28;20286;-77
2021/11/05 01:53:48;;;;;;;8.23;3.05;;;;;;;;;;5021531;28;20515;-77
2021/11/05 01:56:15;;;;;;;6.40;2.90;;;;;;;;;;5021624;28;20181;-76
2021/11/05 01:58:41;;;;;;;6.35;3.00;;;;;;;;;;5022709;28;20186;-77
2021/11/05 02:01:07;;;;;;;9.27;3.90;;;;;;;;;;5023403;28;20185;-76
2021/11/05 02:03:33;;;;;;;6.45;2.50;;;;;;;;;;5020634;28;20201;-76
2021/11/05 02:06:01;;;;;;;2.72;2.22;;;;;;;;;;5020496;28;20714;-76
2021/11/05 02:08:27;;;;;;;5.20;2.55;;;;;;;;;;5022186;28;20200;-76
2021/11/05 02:10:55;;;;;;;5.55;2.47;;;;;;;;;;5041361;28;20171;-77
2021/11/05 02:13:22;;;;;;;2.55;2.25;;;;;;;;;;5023699;28;20257;-77
2021/11/05 02:15:49;;;;;;;6.05;2.97;;;;;;;;;;5046153;28;20208;-77
2021/11/05 02:18:16;;;;;;;5.97;2.55;;;;;;;;;;5020206;28;20729;-76
2021/11/05 02:20:42;;;;;;;7.47;2.45;;;;;;;;;;5019084;28;20197;-76
2021/11/05 02:23:08;;;;;;;10.07;2.72;;;;;;;;;;5022334;28;20194;-77
2021/11/05 02:25:34;;;;;;;8.13;2.28;;;;;;;;;;5025220;28;20217;-76
2021/11/05 02:28:00;;;;;;;3.88;3.00;;;;;;;;;;5022270;28;20183;-77
2021/11/05 02:30:26;;;;;;;7.03;3.00;;;;;;;;;;5025112;28;20178;-77
2021/11/05 02:32:53;;;;;;;3.35;2.03;;;;;;;;;;5020445;28;20183;-76
2021/11/05 02:35:19;;;;;;;5.97;2.63;;;;;;;;;;5052967;28;20205;-76
2021/11/05 02:37:46;;;;;;;4.07;2.03;;;;;;;;;;5021573;28;20178;-76
2021/11/05 02:40:14;;;;;;;2.90;2.25;;;;;;;;;;5023152;28;20224;-76
2021/11/05 02:42:40;;;;;;;3.08;1.98;;;;;;;;;;5025621;28;20186;-77
2021/11/05 02:45:06;;;;;;;8.70;2.45;;;;;;;;;;5020832;28;20218;-77
2021/11/05 02:47:33;;;;;;;6.07;1.95;;;;;;;;;;5054441;28;20238;-77
2021/11/05 02:50:00;;;;;;;7.18;2.20;;;;;;;;;;5021334;28;20253;-76
2021/11/05 02:52:26;;;;;;;6.13;2.47;;;;;;;;;;5019778;28;20195;-76
2021/11/05 02:54:52;;;;;;;3.50;2.40;;;;;;;;;;5021382;28;20220;-77
2021/11/05 02:57:18;;;;;;;4.13;2.88;;;;;;;;;;5023180;28;20183;-77
2021/11/05 02:59:44;;;;;;;4.45;2.10;;;;;;;;;;5021700;28;20181;-77
2021/11/05 03:02:10;;;;;;;3.55;2.40;;;;;;;;;;5042186;28;20228;-77
2021/11/05 03:04:37;;;;;;;9.70;2.03;;;;;;;;;;5022471;28;20183;-76
2021/11/05 03:07:06;;;;;;;10.82;2.22;;;;;;;;;;5029107;28;20245;-76
2021/11/05 03:09:33;;;;;;;7.18;2.25;;;;;;;;;;5037633;28;20212;-76
2021/11/05 03:12:00;;;;;;;3.65;2.13;;;;;;;;;;5017987;28;20205;-76
2021/11/05 03:14:26;;;;;;;6.07;3.00;;;;;;;;;;5041231;28;20179;-76
2021/11/05 03:16:52;;;;;;;4.32;1.77;;;;;;;;;;5015940;28;20183;-76
2021/11/05 03:19:18;;;;;;;8.95;2.88;;;;;;;;;;5045503;28;20210;-76
2021/11/05 03:21:44;;;;;;;4.13;2.70;;;;;;;;;;5023783;28;20190;-76
2021/11/05 03:24:10;;;;;;;6.45;2.20;;;;;;;;;;5051195;28;20183;-76
2021/11/05 03:26:36;;;;;;;5.27;2.30;;;;;;;;;;5021848;28;20513;-76
2021/11/05 03:29:03;;;;;;;6.18;2.25;;;;;;;;;;5020870;28;20881;-76
2021/11/05 03:31:29;;;;;;;3.25;2.15;;;;;;;;;;5040086;28;20270;-77
2021/11/05 03:33:55;;;;;;;9.67;2.93;;;;;;;;;;5037653;28;20209;-77
2021/11/05 03:36:21;;;;;;;7.32;2.90;;;;;;;;;;5021000;28;20441;-76
2021/11/05 03:38:47;;;;;;;5.25;2.25;;;;;;;;;;5019153;28;20184;-76
2021/11/05 03:41:13;;;;;;;4.53;2.50;;;;;;;;;;5040726;28;20197;-76
2021/11/05 03:43:39;;;;;;;4.20;2.35;;;;;;;;;;5023724;28;20183;-76
2021/11/05 03:46:06;;;;;;;4.60;2.13;;;;;;;;;;5017178;28;20223;-76
2021/11/05 03:48:35;;;;;;;6.82;1.98;;;;;;;;;;5021932;28;20202;-76
2021/11/05 03:51:02;;;;;;;5.38;2.33;;;;;;;;;;5018458;28;20178;-76
2021/11/05 03:53:28;;;;;;;3.97;2.22;;;;;;;;;;5042217;28;20175;-76
2021/11/05 03:55:54;;;;;;;6.68;2.13;;;;;;;;;;5017487;28;20178;-76
2021/11/05 03:58:20;;;;;;;3.05;1.75;;;;;;;;;;5019423;28;20195;-76
2021/11/05 04:00:46;;;;;;;5.25;1.75;;;;;;;;;;5017373;28;20259;-76
2021/11/05 04:03:12;;;;;;;3.22;2.13;;;;;;;;;;5023081;28;20178;-76
2021/11/05 04:05:39;;;;;;;5.03;2.15;;;;;;;;;;5019557;28;20224;-76
2021/11/05 04:08:05;;;;;;;4.53;1.98;;;;;;;;;;5018242;28;20179;-76
2021/11/05 04:10:31;;;;;;;6.10;2.47;;;;;;;;;;5019758;28;20693;-77
2021/11/05 04:12:58;;;;;;;3.25;1.75;;;;;;;;;;5018487;28;20186;-76
2021/11/05 04:15:24;;;;;;;8.40;2.70;;;;;;;;;;5022131;28;20236;-76
2021/11/05 04:17:50;;;;;;;4.80;1.70;;;;;;;;;;5017365;28;20194;-76
2021/11/05 04:20:16;;;;;;;4.10;1.70;;;;;;;;;;5039181;28;20167;-76
2021/11/05 04:22:42;;;;;;;4.57;1.75;;;;;;;;;;5018711;28;20328;-76
2021/11/05 04:25:08;;;;;;;3.22;1.60;;;;;;;;;;5020152;28;20177;-75
2021/11/05 04:27:34;;;;;;;5.70;1.85;;;;;;;;;;5021370;28;20682;-76
2021/11/05 04:30:00;;;;;;;2.65;1.75;;;;;;;;;;5019349;28;20248;-76
2021/11/05 04:32:26;;;;;;;5.65;1.50;;;;;;;;;;5040607;28;20182;-76
2021/11/05 04:34:52;;;;;;;1.83;1.37;;;;;;;;;;5019016;28;20189;-75
2021/11/05 04:37:18;;;;;;;2.83;1.90;;;;;;;;;;5018384;28;20445;-75
2021/11/05 04:39:44;;;;;;;4.10;2.00;;;;;;;;;;5020974;28;20183;-76
2021/11/05 04:42:10;;;;;;;6.50;2.00;;;;;;;;;;5034086;28;20572;-76
2021/11/05 04:44:36;;;;;;;5.68;2.30;;;;;;;;;;5020233;28;20444;-76
2021/11/05 04:47:02;;;;;;;5.43;1.80;;;;;;;;;;5018424;28;20290;-76
2021/11/05 04:49:28;;;;;;;6.47;1.80;;;;;;;;;;5016984;28;20221;-76
2021/11/05 04:51:54;;;;;;;3.67;1.50;;;;;;;;;;5029341;28;20702;-76
2021/11/05 04:54:20;;;;;;;5.60;2.05;;;;;;;;;;5034359;28;20214;-76
2021/11/05 04:56:47;;;;;;;5.57;2.33;;;;;;;;;;5017293;28;20673;-76
2021/11/05 04:59:16;;;;;;;4.20;1.90;;;;;;;;;;5038233;28;20261;-76
2021/11/05 05:01:42;;;;;;;5.43;1.70;;;;;;;;;;5019316;28;20884;-76
2021/11/05 05:04:08;;;;;;;8.48;1.85;;;;;;;;;;5016230;28;20186;-76
2021/11/05 05:06:34;;;;;;;5.53;2.17;;;;;;;;;;5018604;28;20193;-76
2021/11/05 05:09:00;;;;;;;2.80;1.85;;;;;;;;;;5037472;28;20554;-76
2021/11/05 05:11:26;;;;;;;3.53;2.00;;;;;;;;;;5022810;28;20174;-76
2021/11/05 05:13:52;;;;;;;5.85;2.05;;;;;;;;;;5017455;28;20186;-76
2021/11/05 05:16:18;;;;;;;4.15;1.80;;;;;;;;;;5018545;28;20190;-76
2021/11/05 05:18:46;;;;;;;4.33;1.90;;;;;;;;;;5021507;28;20183;-76
2021/11/05 05:21:12;;;;;;;3.28;1.60;;;;;;;;;;5018654;28;20819;-76
2021/11/05 05:23:38;;;;;;;5.63;1.92;;;;;;;;;;5019280;28;20179;-76
2021/11/05 05:26:04;;;;;;;5.65;1.70;;;;;;;;;;5018628;28;20183;-76
2021/11/05 05:28:31;;;;;;;7.47;2.08;;;;;;;;;;5037939;28;20309;-76
2021/11/05 05:30:57;;;;;;;4.78;2.50;;;;;;;;;;5029073;28;20206;-76
2021/11/05 05:33:23;;;;;;;5.50;2.47;;;;;;;;;;5034547;28;20250;-76
2021/11/05 05:35:49;;;;;;;4.28;1.80;;;;;;;;;;5015321;28;20213;-76
2021/11/05 05:38:15;;;;;;;5.00;1.60;;;;;;;;;;5014765;28;20739;-76
2021/11/05 05:40:41;;;;;;;3.67;2.30;;;;;;;;;;5013335;28;20179;-76
2021/11/05 05:43:07;;;;;;;4.10;1.80;;;;;;;;;;5018703;28;20240;-76
2021/11/05 05:45:33;;;;;;;7.95;2.80;;;;;;;;;;5017950;28;20473;-76
2021/11/05 05:47:59;;;;;;;9.23;2.70;;;;;;;;;;5015478;28;20190;-76
2021/11/05 05:50:26;;;;;;;4.80;1.98;;;;;;;;;;5038819;28;20201;-76
2021/11/05 05:52:52;;;;;;;2.35;1.60;;;;;;;;;;5017462;28;20206;-76
2021/11/05 05:55:18;;;;;;;2.28;1.52;;;;;;;;;;5018644;28;20182;-75
2021/11/05 05:57:44;;;;;;;6.18;1.80;;;;;;;;;;5018152;28;20182;-75
2021/11/05 06:00:12;;;;;;;7.50;1.95;;;;;;;;;;5032544;28;20189;-76
2021/11/05 06:02:38;;;;;;;8.35;1.92;;;;;;;;;;5018827;28;20167;-76
2021/11/05 06:05:04;;;;;;;3.55;1.70;;;;;;;;;;5019143;28;20191;-76
2021/11/05 06:07:30;;;;;;;8.00;2.00;;;;;;;;;;5017393;28;20199;-76
2021/11/05 06:09:56;;;;;;;5.43;1.60;;;;;;;;;;5020454;28;20203;-76
2021/11/05 06:12:22;;;;;;;3.83;1.77;;;;;;;;;;5016511;28;20191;-76
2021/11/05 06:14:48;;;;;;;2.70;1.67;;;;;;;;;;5018206;28;20170;-76
2021/11/05 06:17:15;;;;;;;7.00;3.20;;;;;;;;;;5036757;28;20206;-76
2021/11/05 06:19:42;;;;;;;4.82;1.80;;;;;;;;;;5019575;28;20187;-76
2021/11/05 06:22:08;;;;;;;17.90;2.58;;;;;;;;;;5018903;28;20254;-76
2021/11/05 06:24:34;;;;;;;8.38;2.25;;;;;;;;;;5017977;28;20250;-76
2021/11/05 06:27:00;;;;;;;3.67;2.28;;;;;;;;;;5016990;28;20595;-76
2021/11/05 06:29:26;;;;;;;6.38;4.22;;;;;;;;;;5018459;28;20202;-76
2021/11/05 06:31:52;;;;;;;2.85;1.90;;;;;;;;;;5019206;28;20179;-76
2021/11/05 06:34:18;;;;;;;2.50;2.00;;;;;;;;;;5023431;28;20179;-76
2021/11/05 06:36:44;;;;;;;2.45;1.85;;;;;;;;;;5020820;28;20185;-76
2021/11/05 06:39:10;;;;;;;8.02;2.35;;;;;;;;;;5036248;28;20542;-76
2021/11/05 06:41:36;;;;;;;5.15;2.03;;;;;;;;;;5022715;28;20185;-76
2021/11/05 06:44:03;;;;;;;5.00;2.38;;;;;;;;;;5020593;28;20213;-76
2021/11/05 06:46:29;;;;;;;7.60;4.65;;;;;;;;;;5019044;28;20234;-76
2021/11/05 06:48:55;;;;;;;5.50;2.70;;;;;;;;;;5023855;28;20213;-76
2021/11/05 06:51:21;;;;;;;4.05;2.50;;;;;;;;;;5017924;28;20223;-76
2021/11/05 06:53:47;;;;;;;5.70;2.20;;;;;;;;;;5020619;28;20194;-76
2021/11/05 06:56:13;;;;;;;7.18;2.22;;;;;;;;;;5040889;28;20186;-76
2021/11/05 06:58:40;;;;;;;8.50;1.95;;;;;;;;;;5019623;28;20229;-76
2021/11/05 07:01:07;;;;;;;5.47;1.92;;;;;;;;;;5022203;28;20213;-76
2021/11/05 07:03:33;;;;;;;2.75;2.15;;;;;;;;;;5020170;28;20183;-77
2021/11/05 07:06:00;;;;;;;7.20;2.22;;;;;;;;;;5053120;28;20648;-76
2021/11/05 07:08:26;;;;;;;4.97;1.80;;;;;;;;;;5041256;28;20202;-76
2021/11/05 07:10:53;;;;;;;4.90;2.35;;;;;;;;;;5020904;28;20210;-76
2021/11/05 07:13:19;;;;;;;4.53;1.77;;;;;;;;;;5016655;28;20261;-76
2021/11/05 07:15:46;;;;;;;6.53;1.70;;;;;;;;;;5023350;28;20182;-76
2021/11/05 07:18:12;;;;;;;7.13;2.00;;;;;;;;;;5019868;28;20183;-76
2021/11/05 07:20:39;;;;;;;5.03;2.15;;;;;;;;;;5023006;28;20723;-76
2021/11/05 07:23:06;;;;;;;4.97;1.73;;;;;;;;;;5024359;28;20267;-77
2021/11/05 07:25:32;;;;;;;4.65;1.90;;;;;;;;;;5022696;28;20187;-77
2021/11/05 07:27:58;;;;;;;2.08;1.80;;;;;;;;;;5022504;28;20703;-77
2021/11/05 07:30:24;;;;;;;4.85;1.50;;;;;;;;;;5018272;28;20190;-77
2021/11/05 07:32:51;;;;;;;5.38;2.20;;;;;;;;;;5023195;28;20573;-77
2021/11/05 07:35:22;;;;;;;2.42;1.38;;;;;;;;;;5040476;28;20186;-77
2021/11/05 07:37:48;;;;;;;3.78;1.65;;;;;;;;;;5019414;28;20178;-77
2021/11/05 07:40:15;;;;;;;2.25;1.60;;;;;;;;;;5039317;28;20217;-76
2021/11/05 07:42:41;;;;;;;4.25;2.40;;;;;;;;;;5035193;28;20195;-77
2021/11/05 07:45:08;;;;;;;3.13;1.50;;;;;;;;;;5022064;28;20614;-76
2021/11/05 07:47:35;;;;;;;4.43;1.73;;;;;;;;;;5037812;28;20178;-77
2021/11/05 07:50:01;;;;;;;2.85;2.05;;;;;;;;;;5021658;28;20238;-78
2021/11/05 07:52:27;;;;;;;2.60;1.55;;;;;;;;;;5023726;28;20190;-77
2021/11/05 07:54:53;;;;;;;2.75;1.38;;;;;;;;;;5019882;28;20178;-77
2021/11/05 07:57:19;;;;;;;3.80;1.63;;;;;;;;;;5014472;28;20218;-77
2021/11/05 07:59:45;;;;;;;2.92;1.55;;;;;;;;;;5020692;28;20178;-77
2021/11/05 08:02:13;;;;;;;2.55;1.50;;;;;;;;;;5040142;28;20181;-77
2021/11/05 08:04:39;;;;;;;3.80;2.13;;;;;;;;;;5019373;28;20191;-77
2021/11/05 08:07:05;;;;;;;2.20;1.30;;;;;;;;;;5019786;28;20749;-76
2021/11/05 08:09:31;;;;;;;3.45;1.60;;;;;;;;;;5018379;28;20715;-77
2021/11/05 08:11:58;;;;;;;5.95;1.52;;;;;;;;;;5021875;28;20234;-78
2021/11/05 08:14:24;;;;;;;5.97;2.40;;;;;;;;;;5039286;28;20192;-77
2021/11/05 08:16:50;;;;;;;2.58;1.42;;;;;;;;;;5022194;28;20261;-77
2021/11/05 08:19:16;;;;;;;3.08;2.00;;;;;;;;;;5029188;28;20175;-77
2021/11/05 08:21:42;;;;;;;6.30;1.40;;;;;;;;;;5021726;28;20182;-77
2021/11/05 08:24:08;;;;;;;5.50;1.83;;;;;;;;;;5019634;28;20190;-78
2021/11/05 08:26:34;;;;;;;7.47;2.00;;;;;;;;;;5054896;28;20193;-78
2021/11/05 08:29:01;;;;;;;6.25;1.88;;;;;;;;;;5018017;28;20210;-77
2021/11/05 08:31:27;;;;;;;4.55;1.98;;;;;;;;;;5022710;28;20292;-77
2021/11/05 08:33:53;;;;;;;4.72;1.50;;;;;;;;;;5018089;28;20182;-77
2021/11/05 08:36:22;;;;;;;2.58;1.65;;;;;;;;;;5021499;28;20194;-78
2021/11/05 08:38:48;;;;;;;6.43;3.40;;;;;;;;;;5018362;28;20233;-77
2021/11/05 08:41:17;;;;;;;5.07;1.55;;;;;;;;;;5050819;28;20174;-78
2021/11/05 08:43:51;;;;;;;2.67;1.70;;;;;;;;;;5019542;28;20244;-78
2021/11/05 08:46:17;;;;;;;4.70;2.45;;;;;;;;;;5017991;28;20273;-76
2021/11/05 08:48:48;;;;;;;6.22;1.50;;;;;;;;;;5022606;28;20210;-77
2021/11/05 08:51:14;;;;;;;3.72;1.40;;;;;;;;;;5033839;28;20278;-78
2021/11/05 08:53:41;;;;;;;3.88;1.58;;;;;;;;;;5017722;28;20178;-77
2021/11/05 08:56:08;;;;;;;2.63;1.98;;;;;;;;;;5049262;28;20174;-77
2021/11/05 08:58:34;;;;;;;2.30;1.70;;;;;;;;;;5019498;28;20217;-77
2021/11/05 09:01:01;;;;;;;4.60;1.50;;;;;;;;;;5021205;28;20213;-77
2021/11/05 09:03:27;;;;;;;4.55;2.17;;;;;;;;;;5016181;28;20255;-77
2021/11/05 09:05:53;;;;;;;2.60;1.52;;;;;;;;;;5017861;28;20182;-77
2021/11/05 09:08:19;;;;;;;3.03;1.50;;;;;;;;;;5018561;28;20206;-76
2021/11/05 09:10:45;;;;;;;4.07;1.93;;;;;;;;;;5018756;28;20181;-79
2021/11/05 09:13:11;;;;;;;5.47;2.25;;;;;;;;;;5019045;28;20440;-77
2021/11/05 09:15:37;;;;;;;3.53;1.08;;;;;;;;;;5022333;28;20905;-78
2021/11/05 09:18:07;;;;;;;7.82;1.50;;;;;;;;;;5021563;28;20194;-77
2021/11/05 09:20:34;;;;;;;5.97;2.15;;;;;;;;;;5050446;28;20188;-77
2021/11/05 09:23:00;;;;;;;3.38;1.90;;;;;;;;;;5018492;28;20190;-77
2021/11/05 09:25:26;;;;;;;2.67;1.75;;;;;;;;;;5022270;28;20202;-77
2021/11/05 09:27:52;;;;;;;5.22;1.77;;;;;;;;;;5018765;28;20274;-78
2021/11/05 09:30:20;;;;;;;4.78;1.50;;;;;;;;;;5021222;28;20206;-78
2021/11/05 09:32:46;;;;;;;4.10;1.55;;;;;;;;;;5019210;28;20179;-76
2021/11/05 09:35:12;;;;;;;4.88;2.30;;;;;;;;;;5038858;28;20189;-76
2021/11/05 09:37:39;;;;;;;2.83;2.20;;;;;;;;;;5020151;28;20190;-77
2021/11/05 09:40:06;;;;;;;3.38;2.35;;;;;;;;;;5020102;28;20206;-77
2021/11/05 09:42:32;;;;;;;4.15;1.80;;;;;;;;;;5021955;28;20616;-77
2021/11/05 09:44:59;;;;;;;5.80;1.67;;;;;;;;;;5015302;28;20218;-77
2021/11/05 09:47:26;;;;;;;2.30;1.40;;;;;;;;;;5017324;28;20178;-76
2021/11/05 09:49:52;;;;;;;3.05;1.40;;;;;;;;;;5020715;28;20304;-77
2021/11/05 09:52:18;;;;;;;6.30;1.53;;;;;;;;;;5015091;28;20214;-78
2021/11/05 09:54:47;;;;;;;3.40;1.35;;;;;;;;;;5053387;28;20434;-78
2021/11/05 09:57:13;;;;;;;5.90;1.52;;;;;;;;;;5032462;28;20705;-81
2021/11/05 09:59:39;;;;;;;5.88;1.55;;;;;;;;;;5022131;28;20647;-78
2021/11/05 10:02:05;;;;;;;4.22;1.58;;;;;;;;;;5017769;28;20735;-76
2021/11/05 10:04:32;;;;;;;5.80;2.08;;;;;;;;;;5037800;28;20182;-76
2021/11/05 10:07:02;;;;;;;6.35;1.60;;;;;;;;;;5036923;28;20190;-78
2021/11/05 10:09:38;;;;;;;6.07;1.85;;;;;;;;;;5023883;28;20325;-78
2021/11/05 10:12:07;;;;;;;4.40;1.38;;;;;;;;;;5021682;28;20222;-78
2021/11/05 10:14:33;;;;;;;4.43;1.63;;;;;;;;;;5054100;28;20179;-77
2021/11/05 10:17:01;;;;;;;1.58;0.88;;;;;;;;;;5021377;28;20186;-78
2021/11/05 10:19:46;;;;;;;2.47;1.70;;;;;;;;;;5020952;28;20191;-77
2021/11/05 10:22:31;;;;;;;4.25;1.73;;;;;;;;;;5022277;28;20183;-78
2021/11/05 10:25:16;;;;;;;2.10;1.23;;;;;;;;;;5027255;28;20182;-78
2021/11/05 10:27:42;;;;;;;3.72;1.70;;;;;;;;;;5036720;28;20301;-77
2021/11/05 10:30:08;;;;;;;3.65;1.50;;;;;;;;;;5025559;28;20213;-78
2021/11/05 10:32:39;;;;;;;4.15;1.70;;;;;;;;;;5052830;28;20174;-78
2021/11/05 10:35:11;;;;;;;2.40;1.58;;;;;;;;;;5024018;28;20178;-78
2021/11/05 10:37:40;;;;;;;5.85;1.30;;;;;;;;;;5019923;28;20253;-78
2021/11/05 10:40:07;;;;;;;4.25;1.30;;;;;;;;;;5021617;28;20182;-78
2021/11/05 10:42:35;;;;;;;1.20;1.10;;;;;;;;;;5024484;28;20190;-78
2021/11/05 10:45:21;;;;;;;3.30;1.70;;;;;;;;;;5020327;28;28749;-78
2021/11/05 10:47:53;;;;;;;2.47;1.30;;;;;;;;;;5022611;28;20293;-78
2021/11/05 10:50:20;;;;;;;2.05;1.20;;;;;;;;;;5041030;28;20221;-77
2021/11/05 10:52:59;;;;;;;6.38;1.25;;;;;;;;;;5021423;28;20178;-79
2021/11/05 10:55:26;;;;;;;2.67;1.27;;;;;;;;;;5021541;28;20306;-79
2021/11/05 10:57:54;;;;;;;1.50;1.20;;;;;;;;;;5018905;28;20183;-78
2021/11/05 11:00:22;;;;;;;5.20;1.75;;;;;;;;;;5023803;28;20214;-77
2021/11/05 11:02:48;;;;;;;3.47;1.42;;;;;;;;;;5023989;28;20186;-79
2021/11/05 11:05:33;;;;;;;2.47;1.35;;;;;;;;;;5020592;28;20253;-77
2021/11/05 11:08:00;;;;;;;4.10;1.38;;;;;;;;;;5021423;28;20191;-78
2021/11/05 11:10:33;;;;;;;3.75;1.33;;;;;;;;;;5024281;28;20230;-78
2021/11/05 11:12:59;;;;;;;2.10;1.48;;;;;;;;;;5018215;28;20186;-78
2021/11/05 11:15:31;;;;;;;3.10;1.75;;;;;;;;;;5022615;28;20210;-79
2021/11/05 11:17:57;;;;;;;2.70;1.05;;;;;;;;;;5038560;28;20193;-78
2021/11/05 11:20:36;;;;;;;1.85;1.20;;;;;;;;;;5040809;28;20218;-77
2021/11/05 11:23:02;;;;;;;2.78;1.20;;;;;;;;;;5017328;28;20175;-79
2021/11/05 11:25:29;;;;;;;3.10;1.23;;;;;;;;;;5020582;28;20191;-78
2021/11/05 11:27:55;;;;;;;3.38;1.42;;;;;;;;;;5014278;28;20190;-79
2021/11/05 11:30:21;;;;;;;3.78;1.35;;;;;;;;;;5018307;28;20222;-81
2021/11/05 11:32:49;;;;;;;2.20;1.20;;;;;;;;;;5018636;28;20175;-79
2021/11/05 11:35:15;;;;;;;5.00;1.40;;;;;;;;;;5034542;28;20219;-78
2021/11/05 11:37:42;;;;;;;2.95;1.27;;;;;;;;;;5018309;28;20194;-80
2021/11/05 11:40:08;;;;;;;7.32;1.90;;;;;;;;;;5024692;28;20214;-80
2021/11/05 11:42:34;;;;;;;2.15;1.25;;;;;;;;;;5025071;28;20186;-79
2021/11/05 11:45:01;;;;;;;7.13;1.40;;;;;;;;;;5018997;28;20571;-79
2021/11/05 11:47:27;;;;;;;3.90;1.35;;;;;;;;;;5050974;28;20189;-78
2021/11/05 11:49:53;;;;;;;6.45;1.55;;;;;;;;;;5050136;28;20207;-80
2021/11/05 11:52:18;;;;;;;2.95;1.42;;;;;;;;;;5019444;28;20183;-79
2021/11/05 11:54:45;;;;;;;3.27;1.40;;;;;;;;;;5019690;28;20655;-79
2021/11/05 11:57:11;;;;;;;3.95;1.25;;;;;;;;;;5014314;28;20437;-78
2021/11/05 11:59:39;;;;;;;4.90;1.40;;;;;;;;;;5016151;28;20256;-79
2021/11/05 12:02:25;;;;;;;3.17;1.20;;;;;;;;;;5022481;28;20440;-79
2021/11/05 12:04:51;;;;;;;4.72;1.35;;;;;;;;;;5019724;28;20608;-79
2021/11/05 12:07:16;;;;;;;2.90;1.40;;;;;;;;;;5038238;28;20190;-79
2021/11/05 12:09:42;;;;;;;2.60;1.20;;;;;;;;;;5021419;28;20465;-78
2021/11/05 12:12:21;;;;;;;2.47;1.20;;;;;;;;;;5022063;28;20449;-79
2021/11/05 12:14:59;;;;;;;1.92;1.20;;;;;;;;;;5021292;28;20357;-79
2021/11/05 12:17:26;;;;;;;3.33;1.25;;;;;;;;;;5038441;28;20182;-79
2021/11/05 12:19:55;;;;;;;3.70;1.55;;;;;;;;;;5038419;28;20190;-79
2021/11/05 12:22:21;;;;;;;3.00;1.35;;;;;;;;;;5022826;28;20221;-80
2021/11/05 12:24:48;;;;;;;5.10;1.35;;;;;;;;;;5021956;28;20182;-79
2021/11/05 12:27:16;;;;;;;3.65;1.63;;;;;;;;;;5019123;28;20201;-79
2021/11/05 12:29:42;;;;;;;2.85;1.23;;;;;;;;;;5020150;28;20205;-79
2021/11/05 12:32:18;;;;;;;4.35;1.27;;;;;;;;;;5039231;28;20171;-79
2021/11/05 12:34:56;;;;;;;1.95;1.05;;;;;;;;;;5017658;28;20186;-79
2021/11/05 12:37:32;;;;;;;2.67;1.05;;;;;;;;;;5019404;28;20340;-80
2021/11/05 12:40:17;;;;;;;6.35;1.20;;;;;;;;;;5021851;28;20178;-80
2021/11/05 12:42:43;;;;;;;3.28;2.00;;;;;;;;;;5023306;28;20245;-79
2021/11/05 12:45:09;;;;;;;4.47;1.50;;;;;;;;;;5018467;28;20222;-80
2021/11/05 12:47:47;;;;;;;2.80;1.20;;;;;;;;;;5018350;28;20456;-79
2021/11/05 12:50:14;;;;;;;1.90;1.20;;;;;;;;;;5021349;28;20259;-79
2021/11/05 12:52:40;;;;;;;2.33;1.27;;;;;;;;;;5022883;28;20209;-79
2021/11/05 12:55:06;;;;;;;2.60;1.25;;;;;;;;;;5019924;28;20213;-78
2021/11/05 12:57:33;;;;;;;3.08;1.20;;;;;;;;;;5024296;28;20214;-78
2021/11/05 12:59:59;;;;;;;2.40;1.13;;;;;;;;;;5022481;28;20282;-78
2021/11/05 13:02:25;;;;;;;3.00;1.30;;;;;;;;;;5055317;28;20193;-79
2021/11/05 13:04:52;;;;;;;2.13;0.80;;;;;;;;;;5024731;28;20191;-79
2021/11/05 13:07:19;;;;;;;2.78;1.13;;;;;;;;;;5024918;28;20178;-81
2021/11/05 13:09:45;;;;;;;1.30;1.10;;;;;;;;;;5018430;28;20210;-78
2021/11/05 13:12:11;;;;;;;2.47;1.10;;;;;;;;;;5022135;28;20464;-79
2021/11/05 13:14:43;;;;;;;4.53;1.50;;;;;;;;;;5022052;28;20181;-79
2021/11/05 13:17:14;;;;;;;1.52;1.20;;;;;;;;;;5050957;28;20178;-79
2021/11/05 13:19:50;;;;;;;3.92;1.10;;;;;;;;;;5019077;28;20663;-79
2021/11/05 13:22:17;;;;;;;4.57;1.42;;;;;;;;;;5018674;28;20198;-79
2021/11/05 13:24:43;;;;;;;3.08;1.35;;;;;;;;;;5017398;28;20520;-79
2021/11/05 13:27:09;;;;;;;3.70;1.40;;;;;;;;;;5021117;28;20245;-79
2021/11/05 13:29:36;;;;;;;3.30;1.27;;;;;;;;;;5038140;28;20460;-80
2021/11/05 13:32:11;;;;;;;3.55;1.23;;;;;;;;;;5018361;28;20711;-80
2021/11/05 13:34:37;;;;;;;3.13;1.50;;;;;;;;;;5036831;28;20204;-80
2021/11/05 13:37:03;;;;;;;1.20;1.10;;;;;;;;;;5019893;28;20186;-81
2021/11/05 13:39:29;;;;;;;1.75;1.30;;;;;;;;;;5016187;28;20204;-79
2021/11/05 13:41:55;;;;;;;1.60;0.90;;;;;;;;;;5051812;28;20189;-79
2021/11/05 13:44:22;;;;;;;5.03;1.10;;;;;;;;;;5039803;28;20189;-80
2021/11/05 13:46:48;;;;;;;1.33;1.00;;;;;;;;;;5023395;28;20228;-80
2021/11/05 13:49:15;;;;;;;3.35;1.30;;;;;;;;;;5057159;28;20706;-77
2021/11/05 13:51:41;;;;;;;1.30;1.02;;;;;;;;;;5026138;28;20288;-77
2021/11/05 13:54:08;;;;;;;1.30;0.88;;;;;;;;;;5019819;28;20183;-77
2021/11/05 13:56:48;;;;;;;1.35;1.02;;;;;;;;;;5053984;28;20201;-77
2021/11/05 13:59:23;;;;;;;2.08;0.82;;;;;;;;;;5039051;28;20214;-77
2021/11/05 14:01:51;;;;;;;2.55;0.90;;;;;;;;;;5017839;28;20650;-77
2021/11/05 14:04:19;;;;;;;1.70;0.95;;;;;;;;;;5022962;28;20190;-77
2021/11/05 14:06:49;;;;;;;2.78;1.20;;;;;;;;;;5021889;28;20190;-77
2021/11/05 14:09:19;;;;;;;3.03;1.30;;;;;;;;;;5036512;28;20213;-77
2021/11/05 14:11:46;;;;;;;2.10;1.05;;;;;;;;;;5021508;28;20178;-77
2021/11/05 14:14:22;;;;;;;2.28;1.00;;;;;;;;;;5022986;28;20620;-77
2021/11/05 14:16:49;;;;;;;0.85;0.80;;;;;;;;;;5019604;28;20186;-77
2021/11/05 14:19:17;;;;;;;2.10;1.00;;;;;;;;;;5021763;28;20286;-77
2021/11/05 14:21:44;;;;;;;3.10;1.02;;;;;;;;;;5020808;28;20194;-77
2021/11/05 14:24:11;;;;;;;1.60;1.10;;;;;;;;;;5021305;28;20235;-77
2021/11/05 14:26:37;;;;;;;2.47;1.20;;;;;;;;;;5021723;28;20185;-77
2021/11/05 14:29:06;;;;;;;2.63;1.00;;;;;;;;;;5021137;28;20206;-77
2021/11/05 14:31:51;;;;;;;1.85;1.00;;;;;;;;;;5019498;28;20214;-76
2021/11/05 14:34:17;;;;;;;1.67;1.10;;;;;;;;;;5046735;28;20465;-77
2021/11/05 14:36:43;;;;;;;3.00;1.17;;;;;;;;;;5024995;28;20214;-77
2021/11/05 14:39:09;;;;;;;2.55;0.95;;;;;;;;;;5020021;28;20202;-77
2021/11/05 14:41:35;;;;;;;3.22;1.13;;;;;;;;;;5042384;28;20240;-77
2021/11/05 14:44:02;;;;;;;2.30;1.00;;;;;;;;;;5019851;28;20190;-77